Time;durP1;ratioP1;P1;durP2;ratioP2;P2;SDS_P1;SDS_P2;PMS_P1;PMS_P2;Temp;Humidity;BMP_temperature;BMP_pressure;BME280_temperature;BME280_humidity;BME280_pressure;Samples;Min_cycle;Max_cycle;Signal;HPM_P1;HPM_P2
2022/02/24 00:02:07;;;;;;;3.70;2.00;;;11.90;79.10;;;;;;4812038;29;20030;-81
2022/02/24 00:04:33;;;;;;;3.90;2.05;;;11.90;79.10;;;;;;4812892;29;20134;-82
2022/02/24 00:06:59;;;;;;;3.45;2.17;;;11.90;79.10;;;;;;4827447;29;20073;-81
2022/02/24 00:09:25;;;;;;;3.53;2.03;;;11.90;79.10;;;;;;4811989;29;20543;-82
2022/02/24 00:11:51;;;;;;;2.70;2.03;;;11.90;79.10;;;;;;4812159;29;20066;-82
2022/02/24 00:14:17;;;;;;;3.80;2.05;;;11.90;79.10;;;;;;4797716;29;20133;-82
2022/02/24 00:16:43;;;;;;;2.97;2.00;;;11.80;79.10;;;;;;4843571;29;20034;-82
2022/02/24 00:19:09;;;;;;;3.28;2.03;;;11.80;79.10;;;;;;4827268;29;20037;-82
2022/02/24 00:21:34;;;;;;;3.75;1.92;;;11.80;79.10;;;;;;4827965;29;20041;-82
2022/02/24 00:24:00;;;;;;;4.57;2.38;;;11.80;79.10;;;;;;4812123;29;20027;-80
2022/02/24 00:26:26;;;;;;;4.00;2.25;;;11.80;79.10;;;;;;4812663;29;20038;-81
2022/02/24 00:28:52;;;;;;;3.05;1.98;;;11.80;79.10;;;;;;4812001;29;20046;-81
2022/02/24 00:31:18;;;;;;;4.07;2.03;;;11.80;79.10;;;;;;4812208;29;20072;-81
2022/02/24 00:33:43;;;;;;;4.38;2.60;;;11.80;79.10;;;;;;4812142;29;20081;-81
2022/02/24 00:36:09;;;;;;;3.78;2.13;;;11.80;79.10;;;;;;4830215;29;20026;-82
2022/02/24 00:38:35;;;;;;;3.83;2.30;;;11.80;79.10;;;;;;4815953;29;20042;-81
2022/02/24 00:41:01;;;;;;;4.22;2.22;;;11.80;79.10;;;;;;4813476;29;20517;-82
2022/02/24 00:43:27;;;;;;;3.08;2.20;;;11.80;79.10;;;;;;4812842;29;20025;-81
2022/02/24 00:45:53;;;;;;;3.97;2.17;;;11.80;79.10;;;;;;4812046;29;20034;-81
2022/02/24 00:48:18;;;;;;;3.40;1.95;;;11.80;79.10;;;;;;4782323;29;20062;-81
2022/02/24 00:50:45;;;;;;;3.72;2.10;;;11.80;79.10;;;;;;4827590;29;20063;-81
2022/02/24 00:53:11;;;;;;;3.72;2.38;;;11.70;79.00;;;;;;4812229;29;20113;-81
2022/02/24 00:55:37;;;;;;;3.85;2.20;;;11.70;79.10;;;;;;4827372;29;20037;-81
2022/02/24 00:58:03;;;;;;;3.53;2.20;;;11.80;79.10;;;;;;4844256;29;20033;-81
2022/02/24 01:00:29;;;;;;;3.70;2.33;;;11.70;79.10;;;;;;4828155;29;20034;-82
2022/02/24 01:02:55;;;;;;;2.63;2.00;;;11.70;79.10;;;;;;4813799;29;20056;-81
2022/02/24 01:05:21;;;;;;;3.88;2.30;;;11.70;79.10;;;;;;4827966;29;20038;-82
2022/02/24 01:07:46;;;;;;;4.10;2.30;;;11.70;79.10;;;;;;4830157;29;20045;-82
2022/02/24 01:10:12;;;;;;;4.18;2.53;;;11.70;79.10;;;;;;4813743;29;20045;-81
2022/02/24 01:12:38;;;;;;;4.07;2.53;;;11.70;79.10;;;;;;4829895;29;20041;-82
2022/02/24 01:15:06;;;;;;;4.25;2.75;;;11.70;79.10;;;;;;4833040;29;20043;-80
2022/02/24 01:17:36;;;;;;;3.88;2.25;;;11.70;79.10;;;;;;4834290;29;20471;-81
2022/02/24 01:20:03;;;;;;;4.32;2.17;;;11.70;79.10;;;;;;4835702;29;20030;-81
2022/02/24 01:22:29;;;;;;;3.33;2.03;;;11.70;79.10;;;;;;4821224;29;20528;-81
2022/02/24 01:24:55;;;;;;;2.95;2.05;;;11.70;79.10;;;;;;4819871;29;20069;-81
2022/02/24 01:27:21;;;;;;;3.38;2.10;;;11.70;79.10;;;;;;4817472;29;20400;-81
2022/02/24 01:29:47;;;;;;;5.00;2.35;;;11.60;79.10;;;;;;4816497;29;20030;-81
2022/02/24 01:32:13;;;;;;;4.13;2.33;;;11.60;79.10;;;;;;4830468;29;20037;-80
2022/02/24 01:34:39;;;;;;;4.03;2.13;;;11.70;79.20;;;;;;4816093;29;20042;-81
2022/02/24 01:37:05;;;;;;;3.90;2.63;;;11.60;79.10;;;;;;4846655;29;20104;-81
2022/02/24 01:39:30;;;;;;;3.25;2.25;;;11.60;79.10;;;;;;4815608;29;20049;-81
2022/02/24 01:41:56;;;;;;;3.97;2.33;;;11.60;79.10;;;;;;4846659;29;20034;-81
2022/02/24 01:44:22;;;;;;;3.63;2.00;;;11.60;79.10;;;;;;4799392;29;20548;-82
2022/02/24 01:46:49;;;;;;;2.72;2.05;;;11.60;79.10;;;;;;4829519;29;20391;-80
2022/02/24 01:49:17;;;;;;;4.53;2.15;;;11.60;79.10;;;;;;4815022;29;20038;-80
2022/02/24 01:51:43;;;;;;;4.45;2.30;;;11.60;79.10;;;;;;4830642;29;20033;-81
2022/02/24 01:54:10;;;;;;;5.13;2.60;;;11.60;79.10;;;;;;4815274;29;20038;-82
2022/02/24 01:56:36;;;;;;;4.13;2.42;;;11.60;79.10;;;;;;4814710;29;20042;-81
2022/02/24 01:59:03;;;;;;;4.03;2.30;;;11.50;79.10;;;;;;4829441;29;20057;-81
2022/02/24 02:01:29;;;;;;;4.32;2.92;;;11.60;79.10;;;;;;4829521;29;20037;-81
2022/02/24 02:03:55;;;;;;;4.13;2.38;;;11.60;79.10;;;;;;4815827;29;20079;-81
2022/02/24 02:06:22;;;;;;;5.28;2.63;;;11.50;79.10;;;;;;4833340;29;20125;-82
2022/02/24 02:08:48;;;;;;;4.10;2.47;;;11.60;79.10;;;;;;4846893;29;20106;-81
2022/02/24 02:11:14;;;;;;;4.43;2.70;;;11.50;79.10;;;;;;4799567;29;20042;-81
2022/02/24 02:13:42;;;;;;;4.45;2.60;;;11.50;79.10;;;;;;4813702;29;20038;-81
2022/02/24 02:16:09;;;;;;;3.67;2.30;;;11.50;79.10;;;;;;4828742;29;20070;-81
2022/02/24 02:18:35;;;;;;;3.95;2.38;;;11.50;79.10;;;;;;4813566;29;20109;-82
2022/02/24 02:21:01;;;;;;;4.40;2.42;;;11.50;79.10;;;;;;4813452;29;20464;-83
2022/02/24 02:23:27;;;;;;;3.17;2.30;;;11.50;79.10;;;;;;4812823;29;20034;-81
2022/02/24 02:25:53;;;;;;;5.57;2.77;;;11.50;79.10;;;;;;4771286;29;1272828;-82
2022/02/24 02:28:18;;;;;;;4.72;2.72;;;11.50;79.10;;;;;;4814533;29;20774;-82
2022/02/24 02:30:45;;;;;;;3.58;2.40;;;11.50;79.10;;;;;;4813908;29;20106;-82
2022/02/24 02:33:11;;;;;;;4.10;2.30;;;11.50;79.10;;;;;;4829216;29;20109;-81
2022/02/24 02:35:37;;;;;;;4.50;2.88;;;11.50;79.10;;;;;;4845297;29;20060;-81
2022/02/24 02:38:04;;;;;;;4.85;2.88;;;11.40;79.10;;;;;;4814110;29;20144;-81
2022/02/24 02:40:34;;;;;;;4.50;2.97;;;11.50;79.10;;;;;;4813513;29;20054;-83
2022/02/24 02:43:00;;;;;;;3.97;2.53;;;11.40;79.10;;;;;;4828405;29;20547;-82
2022/02/24 02:45:25;;;;;;;3.72;2.67;;;11.50;79.20;;;;;;4813166;29;20046;-81
2022/02/24 02:47:51;;;;;;;5.68;2.92;;;11.40;79.10;;;;;;4828828;29;20034;-82
2022/02/24 02:50:17;;;;;;;5.72;2.90;;;11.40;79.10;;;;;;4813534;29;20476;-81
2022/02/24 02:52:43;;;;;;;5.07;2.85;;;11.40;79.10;;;;;;4813588;29;20030;-81
2022/02/24 02:55:11;;;;;;;3.88;2.58;;;11.40;79.10;;;;;;4783906;29;20394;-81
2022/02/24 02:57:38;;;;;;;4.05;2.63;;;11.40;79.10;;;;;;4829150;29;20471;-81
2022/02/24 03:00:07;;;;;;;5.85;3.45;;;11.40;79.10;;;;;;4833175;29;20034;-81
2022/02/24 03:02:33;;;;;;;4.82;2.67;;;11.40;79.10;;;;;;4819902;29;20138;-82
2022/02/24 03:04:59;;;;;;;6.68;3.20;;;11.40;79.10;;;;;;4818189;29;20054;-82
2022/02/24 03:07:25;;;;;;;4.32;2.67;;;11.30;79.10;;;;;;4832307;29;20367;-82
2022/02/24 03:09:52;;;;;;;5.03;3.10;;;11.40;79.10;;;;;;4800100;29;20041;-81
2022/02/24 03:12:18;;;;;;;5.43;2.70;;;11.40;79.10;;;;;;4814319;29;20034;-81
2022/02/24 03:14:46;;;;;;;4.53;2.83;;;11.40;79.10;;;;;;4813321;29;20046;-81
2022/02/24 03:17:12;;;;;;;4.38;2.95;;;11.30;79.00;;;;;;4828150;29;20034;-81
2022/02/24 03:19:39;;;;;;;3.90;2.47;;;11.40;79.10;;;;;;4813066;29;20480;-81
2022/02/24 03:22:13;;;;;;;3.47;2.28;;;11.40;79.10;;;;;;4813043;29;20042;-81
2022/02/24 03:24:39;;;;;;;3.97;2.40;;;11.40;79.20;;;;;;4827698;29;20046;-82
2022/02/24 03:27:05;;;;;;;4.07;2.60;;;11.30;79.00;;;;;;4828221;29;20049;-81
2022/02/24 03:29:31;;;;;;;3.63;2.13;;;11.30;79.00;;;;;;4813567;29;20262;-81
2022/02/24 03:31:57;;;;;;;4.07;2.50;;;11.30;79.70;;;;;;4828081;29;20105;-82
2022/02/24 03:34:24;;;;;;;4.35;2.53;;;11.30;79.10;;;;;;4813451;29;20037;-81
2022/02/24 03:36:49;;;;;;;4.57;2.58;;;11.30;79.00;;;;;;4827702;29;20109;-82
2022/02/24 03:39:15;;;;;;;4.68;2.60;;;11.30;79.00;;;;;;4812859;29;20045;-81
2022/02/24 03:41:42;;;;;;;3.20;2.13;;;11.30;79.10;;;;;;4828098;29;20480;-81
2022/02/24 03:44:07;;;;;;;4.00;2.20;;;11.30;79.00;;;;;;4812729;29;20078;-84
2022/02/24 03:46:33;;;;;;;3.50;2.55;;;11.30;79.00;;;;;;4812911;29;20071;-81
2022/02/24 03:48:59;;;;;;;4.30;2.17;;;11.30;79.10;;;;;;4812989;29;20038;-81
2022/02/24 03:51:25;;;;;;;4.25;2.20;;;11.30;79.10;;;;;;4828531;29;20418;-81
2022/02/24 03:53:51;;;;;;;4.55;2.45;;;11.30;79.00;;;;;;4797623;29;20034;-82
2022/02/24 03:56:17;;;;;;;3.25;2.35;;;11.30;79.00;;;;;;4827775;29;20038;-81
2022/02/24 03:58:45;;;;;;;4.55;2.13;;;11.20;79.00;;;;;;4827870;29;20034;-82
2022/02/24 04:01:12;;;;;;;2.75;2.00;;;11.30;79.10;;;;;;4828424;29;20049;-81
2022/02/24 04:03:37;;;;;;;4.95;2.65;;;11.30;79.00;;;;;;4812885;29;20078;-81
2022/02/24 04:06:03;;;;;;;3.22;2.15;;;11.30;79.10;;;;;;4827509;29;20126;-81
2022/02/24 04:08:29;;;;;;;4.35;2.40;;;11.20;79.00;;;;;;4827986;29;20034;-81
2022/02/24 04:10:55;;;;;;;4.40;2.60;;;11.20;79.00;;;;;;4812472;29;20042;-82
2022/02/24 04:13:22;;;;;;;3.45;2.35;;;11.20;79.00;;;;;;4798042;29;20127;-81
2022/02/24 04:15:47;;;;;;;2.65;2.00;;;11.20;79.00;;;;;;4812507;29;20412;-82
2022/02/24 04:18:13;;;;;;;3.53;2.40;;;11.20;79.00;;;;;;4812466;29;20114;-81
2022/02/24 04:20:39;;;;;;;5.35;2.30;;;11.20;79.00;;;;;;4797264;29;20034;-82
2022/02/24 04:23:05;;;;;;;2.55;1.73;;;11.20;79.30;;;;;;4812717;29;20038;-82
2022/02/24 04:25:31;;;;;;;4.22;2.10;;;11.20;79.00;;;;;;4811790;29;20074;-81
2022/02/24 04:27:57;;;;;;;5.30;2.38;;;11.20;78.90;;;;;;4827097;29;20118;-82
2022/02/24 04:30:23;;;;;;;2.33;1.85;;;11.20;79.00;;;;;;4812274;29;20061;-83
2022/02/24 04:32:50;;;;;;;3.47;2.00;;;11.20;79.00;;;;;;4812162;29;20068;-81
2022/02/24 04:35:16;;;;;;;5.22;2.22;;;11.20;79.00;;;;;;4827211;29;20495;-81
2022/02/24 04:37:42;;;;;;;5.38;2.60;;;11.20;79.00;;;;;;4826982;29;20034;-82
2022/02/24 04:40:09;;;;;;;4.82;2.42;;;11.20;79.00;;;;;;4843675;29;20044;-83
2022/02/24 04:42:35;;;;;;;4.18;2.17;;;11.20;78.90;;;;;;4811805;29;20042;-82
2022/02/24 04:45:01;;;;;;;4.50;2.58;;;11.10;78.90;;;;;;4811995;29;20141;-81
2022/02/24 04:47:27;;;;;;;3.95;2.55;;;11.10;78.90;;;;;;4812033;29;20034;-81
2022/02/24 04:49:53;;;;;;;3.58;2.15;;;11.10;78.90;;;;;;4827331;29;20048;-81
2022/02/24 04:52:19;;;;;;;4.07;2.35;;;11.10;78.90;;;;;;4827416;29;20472;-82
2022/02/24 04:54:46;;;;;;;4.80;2.58;;;11.10;78.90;;;;;;4827094;29;20045;-81
2022/02/24 04:57:12;;;;;;;3.30;2.17;;;11.20;78.90;;;;;;4843127;29;20110;-80
2022/02/24 04:59:38;;;;;;;3.92;2.28;;;11.10;78.90;;;;;;4811835;29;20547;-82
2022/02/24 05:02:04;;;;;;;4.22;2.17;;;11.20;79.00;;;;;;4827577;29;20065;-82
2022/02/24 05:04:30;;;;;;;4.70;2.50;;;11.10;78.90;;;;;;4827090;29;20034;-82
2022/02/24 05:06:58;;;;;;;5.07;2.60;;;11.10;78.90;;;;;;4811693;29;20105;-82
2022/02/24 05:09:25;;;;;;;2.63;2.03;;;11.20;79.00;;;;;;4812001;29;20424;-81
2022/02/24 05:11:51;;;;;;;4.75;2.30;;;11.10;78.90;;;;;;4827037;29;20037;-80
2022/02/24 05:14:17;;;;;;;4.13;2.13;;;11.10;78.90;;;;;;4811823;29;20480;-83
2022/02/24 05:16:43;;;;;;;3.22;2.30;;;11.10;78.90;;;;;;4826987;29;20091;-80
2022/02/24 05:19:09;;;;;;;4.38;2.40;;;11.10;78.90;;;;;;4812105;29;20038;-81
2022/02/24 05:21:34;;;;;;;4.25;2.50;;;11.10;78.90;;;;;;4843112;29;20082;-81
2022/02/24 05:24:00;;;;;;;4.88;2.60;;;11.10;78.90;;;;;;4811101;29;20033;-81
2022/02/24 05:26:26;;;;;;;4.80;2.42;;;11.10;78.90;;;;;;4796353;29;20034;-81
2022/02/24 05:28:52;;;;;;;2.92;2.15;;;11.10;78.90;;;;;;4811433;29;20030;-82
2022/02/24 05:31:17;;;;;;;4.07;2.42;;;11.10;78.90;;;;;;4796672;29;20041;-82
2022/02/24 05:33:43;;;;;;;3.63;2.25;;;11.10;78.90;;;;;;4811548;29;20480;-82
2022/02/24 05:36:09;;;;;;;4.57;2.30;;;11.10;78.90;;;;;;4826729;29;20038;-78
2022/02/24 05:38:35;;;;;;;4.10;2.63;;;11.10;78.90;;;;;;4825921;29;20129;-79
2022/02/24 05:41:02;;;;;;;5.22;2.85;;;11.10;78.90;;;;;;4826573;29;20033;-78
2022/02/24 05:43:28;;;;;;;4.05;2.30;;;11.10;78.90;;;;;;4825839;29;20034;-79
2022/02/24 05:45:58;;;;;;;5.05;2.30;;;11.10;78.90;;;;;;4811080;29;20170;-78
2022/02/24 05:48:24;;;;;;;4.22;2.20;;;11.10;78.90;;;;;;4810757;29;20445;-81
2022/02/24 05:50:50;;;;;;;4.18;2.33;;;11.10;79.00;;;;;;4810857;29;20055;-79
2022/02/24 05:53:16;;;;;;;4.22;2.08;;;11.10;79.00;;;;;;4826204;29;20065;-81
2022/02/24 05:55:42;;;;;;;3.13;2.08;;;11.10;78.90;;;;;;4826258;29;20062;-80
2022/02/24 05:58:08;;;;;;;4.18;2.30;;;11.10;78.90;;;;;;4811550;29;20038;-80
2022/02/24 06:00:33;;;;;;;3.63;2.00;;;11.00;78.90;;;;;;4814382;29;20034;-78
2022/02/24 06:03:00;;;;;;;4.38;2.30;;;11.00;78.90;;;;;;4829413;29;20026;-81
2022/02/24 06:05:25;;;;;;;3.72;2.25;;;11.00;78.90;;;;;;4814178;29;20046;-81
2022/02/24 06:07:51;;;;;;;5.38;2.70;;;11.00;78.90;;;;;;4829334;29;20049;-81
2022/02/24 06:10:17;;;;;;;3.70;2.25;;;11.00;78.90;;;;;;4814487;29;20026;-78
2022/02/24 06:12:43;;;;;;;3.47;2.05;;;11.00;78.90;;;;;;4814158;29;20038;-78
2022/02/24 06:15:10;;;;;;;3.40;2.20;;;11.00;78.90;;;;;;4814250;29;20393;-81
2022/02/24 06:17:36;;;;;;;4.88;2.35;;;11.00;78.90;;;;;;4814341;29;20041;-80
2022/02/24 06:20:03;;;;;;;7.07;2.30;;;11.00;78.90;;;;;;4813805;29;20026;-78
2022/02/24 06:22:29;;;;;;;4.35;2.17;;;11.00;78.90;;;;;;4813745;29;20030;-79
2022/02/24 06:24:55;;;;;;;5.03;2.35;;;11.00;78.90;;;;;;4813247;29;20079;-80
2022/02/24 06:27:21;;;;;;;4.32;2.50;;;11.00;78.90;;;;;;4813664;29;20034;-78
2022/02/24 06:29:47;;;;;;;3.28;2.10;;;11.00;78.90;;;;;;4828508;29;20090;-79
2022/02/24 06:32:13;;;;;;;3.45;2.40;;;11.00;78.90;;;;;;4813259;29;20045;-78
2022/02/24 06:34:40;;;;;;;4.22;2.30;;;11.00;78.90;;;;;;4813871;29;20383;-78
2022/02/24 06:37:07;;;;;;;4.65;2.13;;;11.00;78.90;;;;;;4844917;29;20058;-80
2022/02/24 06:39:33;;;;;;;4.30;2.40;;;11.00;78.90;;;;;;4813633;29;20037;-82
2022/02/24 06:41:59;;;;;;;4.10;2.50;;;11.00;78.90;;;;;;4844838;29;20085;-79
2022/02/24 06:44:26;;;;;;;4.43;2.55;;;11.00;78.90;;;;;;4813215;29;20161;-80
2022/02/24 06:46:51;;;;;;;4.47;2.60;;;11.00;78.90;;;;;;4827800;29;20037;-80
2022/02/24 06:49:17;;;;;;;4.00;2.15;;;11.00;79.00;;;;;;4828186;29;20404;-81
2022/02/24 06:51:44;;;;;;;3.35;2.22;;;11.00;78.90;;;;;;4827814;29;20038;-78
2022/02/24 06:54:10;;;;;;;4.32;2.30;;;11.00;78.90;;;;;;4828772;29;20052;-79
2022/02/24 06:56:36;;;;;;;4.95;2.20;;;11.00;78.90;;;;;;4828081;29;20526;-78
2022/02/24 06:59:02;;;;;;;3.97;2.50;;;10.90;78.90;;;;;;4812835;29;20033;-78
2022/02/24 07:01:27;;;;;;;4.07;2.38;;;11.00;78.90;;;;;;4844095;29;20037;-78
2022/02/24 07:03:53;;;;;;;4.13;2.28;;;10.90;78.90;;;;;;4812501;29;20479;-78
2022/02/24 07:06:19;;;;;;;3.38;2.08;;;11.00;78.90;;;;;;4827665;29;20127;-78
2022/02/24 07:08:45;;;;;;;4.10;2.33;;;11.00;79.00;;;;;;4844521;29;20399;-78
2022/02/24 07:11:10;;;;;;;3.80;2.47;;;11.00;78.90;;;;;;4827108;29;20069;-78
2022/02/24 07:13:36;;;;;;;4.15;2.20;;;11.00;78.90;;;;;;4812323;29;20030;-80
2022/02/24 07:16:02;;;;;;;3.38;2.35;;;10.90;78.90;;;;;;4797567;29;20046;-78
2022/02/24 07:18:28;;;;;;;5.95;2.63;;;11.00;79.00;;;;;;4813149;29;20432;-80
2022/02/24 07:20:54;;;;;;;3.42;2.15;;;10.90;78.90;;;;;;4827546;29;20038;-79
2022/02/24 07:23:24;;;;;;;3.70;1.85;;;10.90;78.90;;;;;;4812311;29;20034;-80
2022/02/24 07:25:55;;;;;;;3.75;2.28;;;10.90;78.90;;;;;;4824403;29;20129;-79
2022/02/24 07:28:22;;;;;;;6.07;2.15;;;10.90;78.90;;;;;;4826081;29;20063;-78
2022/02/24 07:30:47;;;;;;;3.40;2.10;;;10.90;78.90;;;;;;4809437;29;20026;-80
2022/02/24 07:33:13;;;;;;;2.95;2.05;;;10.90;78.90;;;;;;4825098;29;20471;-79
2022/02/24 07:35:39;;;;;;;3.17;2.20;;;10.90;78.90;;;;;;4824736;29;20046;-79
2022/02/24 07:38:05;;;;;;;3.45;1.92;;;10.90;78.90;;;;;;4809742;29;20034;-85
2022/02/24 07:40:31;;;;;;;2.92;1.95;;;10.90;78.90;;;;;;4809939;29;20034;-84
2022/02/24 07:42:57;;;;;;;3.40;2.20;;;10.90;78.90;;;;;;4794974;29;20033;-83
2022/02/24 07:45:23;;;;;;;3.60;2.00;;;10.90;78.90;;;;;;4795192;29;20053;-83
2022/02/24 07:47:48;;;;;;;3.63;1.90;;;10.90;78.90;;;;;;4825254;29;20064;-85
2022/02/24 07:50:14;;;;;;;5.03;2.38;;;10.90;78.90;;;;;;4826061;29;20113;-83
2022/02/24 07:52:45;;;;;;;3.03;1.70;;;10.90;78.90;;;;;;4810396;29;20381;-82
2022/02/24 07:55:13;;;;;;;2.95;1.70;;;10.90;79.00;;;;;;4809573;29;20049;-83
2022/02/24 07:57:39;;;;;;;4.78;2.00;;;10.90;79.00;;;;;;4825682;29;20049;-83
2022/02/24 08:00:07;;;;;;;3.58;1.80;;;10.90;79.00;;;;;;4824961;29;20076;-83
2022/02/24 08:02:33;;;;;;;2.85;1.98;;;10.90;79.00;;;;;;4824738;29;20041;-83
2022/02/24 08:04:59;;;;;;;3.47;1.80;;;10.90;79.00;;;;;;4824825;29;20042;-84
2022/02/24 08:07:25;;;;;;;3.58;1.90;;;10.90;79.00;;;;;;4824760;29;20045;-88
2022/02/24 08:09:51;;;;;;;3.42;2.10;;;10.90;79.00;;;;;;4824724;29;20039;-83
2022/02/24 08:15:02;;;;;;;4.25;1.83;;;10.90;79.00;;;;;;4825711;29;20113;-83
2022/02/24 08:17:28;;;;;;;3.38;2.00;;;10.90;78.90;;;;;;4825722;29;20087;-82
2022/02/24 08:19:54;;;;;;;4.28;1.90;;;10.90;78.90;;;;;;4809215;29;20030;-85
2022/02/24 08:22:20;;;;;;;2.97;2.15;;;10.90;79.00;;;;;;4794013;29;20030;-82
2022/02/24 08:24:46;;;;;;;3.28;1.90;;;10.90;79.00;;;;;;4808914;29;20050;-82
2022/02/24 08:27:12;;;;;;;2.72;1.83;;;10.90;79.00;;;;;;4824750;29;20076;-82
2022/02/24 08:29:37;;;;;;;3.60;1.90;;;10.90;79.00;;;;;;4810146;29;20058;-83
2022/02/24 08:32:03;;;;;;;2.42;1.70;;;10.90;79.10;;;;;;4794320;29;20045;-83
2022/02/24 08:34:29;;;;;;;2.63;1.75;;;10.90;79.60;;;;;;4824514;29;20042;-83
2022/02/24 08:36:55;;;;;;;3.88;1.95;;;10.90;78.90;;;;;;4809120;29;20113;-85
2022/02/24 08:39:23;;;;;;;3.17;1.90;;;10.90;78.90;;;;;;4809706;29;20380;-83
2022/02/24 08:41:49;;;;;;;3.75;1.83;;;10.90;78.90;;;;;;4809401;29;20034;-82
2022/02/24 08:44:15;;;;;;;3.92;2.10;;;10.90;78.90;;;;;;4808688;29;20349;-83
2022/02/24 08:46:42;;;;;;;4.00;1.80;;;10.90;78.90;;;;;;4809128;29;20078;-83
2022/02/24 08:49:08;;;;;;;4.57;2.00;;;10.90;78.90;;;;;;4809040;29;20030;-83
2022/02/24 08:51:34;;;;;;;3.88;2.00;;;10.90;78.90;;;;;;4824396;29;20364;-84
2022/02/24 08:53:59;;;;;;;3.08;1.88;;;11.00;79.00;;;;;;4809118;29;20034;-85
2022/02/24 08:56:25;;;;;;;4.80;2.08;;;10.90;78.90;;;;;;4823898;29;20042;-88
2022/02/24 08:58:51;;;;;;;3.70;2.20;;;10.90;78.90;;;;;;4809585;29;20030;-83
2022/02/24 09:01:17;;;;;;;3.08;1.73;;;10.90;78.90;;;;;;4823966;29;20133;-84
2022/02/24 09:03:42;;;;;;;3.03;1.73;;;10.90;78.90;;;;;;4809095;29;20030;-83
2022/02/24 09:06:08;;;;;;;2.65;1.60;;;11.00;78.90;;;;;;4794032;29;20053;-83
2022/02/24 09:08:34;;;;;;;4.15;1.98;;;11.00;78.90;;;;;;4808739;29;20464;-83
2022/02/24 09:11:00;;;;;;;2.75;1.92;;;11.00;78.90;;;;;;4809253;29;20035;-83
2022/02/24 09:13:26;;;;;;;3.50;1.83;;;11.00;78.90;;;;;;4794680;29;20460;-83
2022/02/24 09:15:52;;;;;;;4.45;1.85;;;11.00;78.90;;;;;;4809563;29;20077;-84
2022/02/24 09:18:18;;;;;;;4.13;2.13;;;11.00;78.90;;;;;;4809899;29;20429;-81
2022/02/24 09:20:44;;;;;;;3.22;2.10;;;11.00;78.90;;;;;;4794115;29;20077;-82
2022/02/24 09:23:10;;;;;;;3.05;1.80;;;11.00;78.80;;;;;;4808741;29;20039;-84
2022/02/24 09:25:36;;;;;;;2.60;1.65;;;11.00;78.80;;;;;;4808984;29;20046;-83
2022/02/24 09:28:02;;;;;;;2.75;1.85;;;11.00;78.80;;;;;;4824001;29;20046;-85
2022/02/24 09:30:29;;;;;;;3.78;1.85;;;11.00;78.80;;;;;;4809055;29;20031;-86
2022/02/24 09:32:55;;;;;;;2.42;1.70;;;11.00;78.80;;;;;;4794495;29;20033;-83
2022/02/24 09:35:22;;;;;;;3.85;1.88;;;11.10;78.90;;;;;;4827589;29;20133;-84
2022/02/24 09:37:48;;;;;;;3.53;2.00;;;11.10;78.80;;;;;;4812570;29;20122;-82
2022/02/24 09:40:14;;;;;;;3.00;1.63;;;11.10;78.80;;;;;;4812961;29;20062;-83
2022/02/24 09:42:41;;;;;;;3.22;2.00;;;11.10;78.80;;;;;;4812468;29;20023;-84
2022/02/24 09:45:08;;;;;;;4.05;2.03;;;11.10;78.80;;;;;;4811897;29;20042;-83
2022/02/24 09:47:37;;;;;;;4.60;1.88;;;11.10;78.80;;;;;;4827551;29;20022;-84
2022/02/24 09:50:04;;;;;;;3.92;1.90;;;11.10;78.80;;;;;;4827190;29;20377;-83
2022/02/24 09:52:30;;;;;;;2.65;1.77;;;11.10;78.70;;;;;;4812088;29;20087;-87
2022/02/24 09:54:56;;;;;;;3.63;1.95;;;11.20;78.80;;;;;;4812767;29;20038;-83
2022/02/24 09:57:22;;;;;;;2.67;1.70;;;11.20;78.80;;;;;;4812887;29;20091;-84
2022/02/24 09:59:47;;;;;;;2.88;1.77;;;11.20;78.80;;;;;;4811749;29;20473;-82
2022/02/24 10:02:15;;;;;;;4.22;1.73;;;11.20;78.80;;;;;;4826889;29;20123;-84
2022/02/24 10:05:10;;;;;;;3.13;1.80;;;11.20;78.70;;;;;;4811873;29;20054;-83
2022/02/24 10:07:38;;;;;;;2.67;1.48;;;11.20;78.90;;;;;;4826288;29;20027;-83
2022/02/24 10:10:31;;;;;;;3.00;1.77;;;11.30;78.70;;;;;;4812208;29;20094;-82
2022/02/24 10:13:10;;;;;;;2.60;1.70;;;11.30;78.90;;;;;;4827081;29;20087;-81
2022/02/24 10:15:55;;;;;;;2.63;1.60;;;11.30;78.90;;;;;;4827133;29;20050;-83
2022/02/24 10:18:24;;;;;;;3.10;1.60;;;11.30;78.90;;;;;;4826772;29;20117;-83
2022/02/24 10:20:51;;;;;;;2.03;1.40;;;11.30;78.80;;;;;;4797255;29;20035;-86
2022/02/24 10:23:19;;;;;;;2.47;2.05;;;11.30;78.70;;;;;;4826644;29;20111;-83
2022/02/24 10:25:44;;;;;;;2.60;1.60;;;11.40;78.80;;;;;;4826119;29;20187;-83
2022/02/24 10:28:40;;;;;;;3.55;1.80;;;11.40;78.80;;;;;;4826298;29;20102;-82
2022/02/24 10:31:23;;;;;;;2.30;1.67;;;11.40;78.90;;;;;;4805551;29;20098;-83
2022/02/24 10:33:53;;;;;;;4.03;1.98;;;11.40;78.80;;;;;;4826112;29;20034;-83
2022/02/24 10:36:24;;;;;;;3.17;1.73;;;11.50;78.80;;;;;;4826124;29;20046;-84
2022/02/24 10:39:08;;;;;;;2.95;1.60;;;11.50;78.90;;;;;;4825995;29;20046;-83
2022/02/24 10:41:38;;;;;;;2.00;1.50;;;11.50;78.90;;;;;;4811406;29;20133;-85
2022/02/24 10:44:22;;;;;;;3.67;1.48;;;11.50;78.80;;;;;;4825556;29;20158;-82
2022/02/24 10:47:02;;;;;;;2.65;1.73;;;11.60;79.00;;;;;;4811348;29;20452;-83
2022/02/24 10:49:36;;;;;;;2.05;1.45;;;11.60;78.90;;;;;;4810955;29;20337;-85
2022/02/24 10:52:14;;;;;;;1.95;1.50;;;11.60;78.90;;;;;;4825700;29;20075;-83
2022/02/24 10:54:41;;;;;;;2.20;1.40;;;11.70;79.00;;;;;;4825923;29;20034;-82
2022/02/24 10:57:20;;;;;;;2.63;1.75;;;11.70;78.90;;;;;;4810438;29;20036;-83
2022/02/24 10:59:50;;;;;;;3.13;1.70;;;11.70;79.00;;;;;;4810698;29;20046;-82
2022/02/24 11:02:16;;;;;;;2.60;1.80;;;11.80;78.90;;;;;;4825491;29;20031;-83
2022/02/24 11:04:44;;;;;;;2.80;1.40;;;11.80;78.90;;;;;;4828488;29;20038;-82
2022/02/24 11:07:11;;;;;;;1.65;1.23;;;11.90;78.90;;;;;;4807216;29;20047;-82
2022/02/24 11:09:39;;;;;;;1.50;1.40;;;11.90;78.90;;;;;;4832249;29;20059;-88
2022/02/24 11:12:07;;;;;;;2.80;1.50;;;12.00;78.90;;;;;;4830640;29;20066;-83
2022/02/24 11:14:39;;;;;;;4.07;1.80;;;12.00;78.90;;;;;;4810691;29;20027;-83
2022/02/24 11:17:06;;;;;;;2.28;1.65;;;12.10;78.90;;;;;;4826108;29;20073;-84
2022/02/24 11:19:35;;;;;;;3.88;1.60;;;12.10;78.80;;;;;;4810862;29;20038;-83
2022/02/24 11:22:02;;;;;;;2.50;1.50;;;12.10;78.80;;;;;;4810922;29;20039;-83
2022/02/24 11:24:28;;;;;;;2.33;1.50;;;12.20;78.80;;;;;;4809845;29;20088;-82
2022/02/24 11:27:29;;;;;;;3.10;1.67;;;12.20;78.80;;;;;;4825802;29;20042;-81
2022/02/24 11:30:29;;;;;;;2.30;1.55;;;12.20;78.90;;;;;;4825580;29;20034;-82
2022/02/24 11:32:56;;;;;;;2.42;1.40;;;12.30;79.00;;;;;;4780818;29;20043;-81
2022/02/24 11:35:22;;;;;;;2.92;1.45;;;12.30;78.80;;;;;;4809942;29;20133;-84
2022/02/24 11:37:51;;;;;;;1.75;1.33;;;12.30;78.90;;;;;;4826359;29;20044;-83
2022/02/24 11:40:17;;;;;;;3.50;1.45;;;12.40;78.90;;;;;;4824900;29;20061;-83
2022/02/24 11:43:04;;;;;;;2.58;1.45;;;12.40;78.90;;;;;;4826130;29;20073;-82
2022/02/24 11:45:35;;;;;;;1.83;1.40;;;12.40;78.90;;;;;;4809356;29;20236;-83
2022/02/24 11:48:06;;;;;;;3.45;1.67;;;12.50;78.90;;;;;;4825355;29;20050;-82
2022/02/24 11:50:32;;;;;;;2.10;1.33;;;12.50;79.00;;;;;;4825194;29;20086;-84
2022/02/24 11:52:59;;;;;;;2.50;1.50;;;12.50;78.90;;;;;;4824814;29;20033;-84
2022/02/24 11:55:45;;;;;;;3.65;1.42;;;12.60;79.00;;;;;;4824877;29;20047;-83
2022/02/24 11:58:32;;;;;;;2.38;1.40;;;12.60;79.10;;;;;;4824733;29;20468;-83
2022/02/24 12:01:09;;;;;;;3.22;1.30;;;12.60;79.10;;;;;;4825564;29;20039;-85
2022/02/24 12:03:44;;;;;;;1.90;1.30;;;12.70;79.10;;;;;;4809787;29;20039;-86
2022/02/24 12:06:35;;;;;;;1.80;1.30;;;12.70;79.10;;;;;;4809294;29;20380;-84
2022/02/24 12:09:19;;;;;;;2.67;1.38;;;12.80;79.10;;;;;;4810256;29;20110;-85
2022/02/24 12:12:17;;;;;;;2.63;1.30;;;12.80;79.00;;;;;;4809879;29;20057;-82
2022/02/24 12:14:44;;;;;;;1.42;1.30;;;12.80;79.00;;;;;;4807478;29;20065;-85
2022/02/24 12:17:11;;;;;;;1.40;1.30;;;12.90;79.00;;;;;;4809382;29;20038;-85
2022/02/24 12:19:40;;;;;;;1.60;1.17;;;12.90;79.00;;;;;;4825155;29;20034;-85
2022/02/24 12:22:33;;;;;;;2.28;1.40;;;12.90;79.00;;;;;;4825992;29;20034;-86
2022/02/24 12:25:12;;;;;;;1.48;1.38;;;13.00;79.20;;;;;;4824966;29;20054;-84
2022/02/24 12:27:40;;;;;;;1.30;1.20;;;13.00;79.00;;;;;;4824914;29;20544;-84
2022/02/24 12:30:09;;;;;;;1.40;1.20;;;13.00;79.00;;;;;;4809695;29;20095;-84
2022/02/24 12:32:53;;;;;;;2.92;1.73;;;13.10;79.00;;;;;;4824700;29;20068;-84
2022/02/24 12:35:21;;;;;;;1.33;1.10;;;13.10;79.10;;;;;;4825541;29;20121;-84
2022/02/24 12:37:49;;;;;;;2.80;1.20;;;13.20;79.00;;;;;;4809239;29;20042;-84
2022/02/24 12:40:29;;;;;;;1.92;1.20;;;13.20;78.90;;;;;;4809344;29;20035;-85
2022/02/24 12:42:57;;;;;;;2.80;1.15;;;13.20;79.00;;;;;;4809962;29;20042;-85
2022/02/24 12:45:24;;;;;;;1.67;1.23;;;13.30;78.90;;;;;;4824065;29;20103;-85
2022/02/24 12:47:51;;;;;;;1.58;1.10;;;13.30;78.90;;;;;;4825013;29;20038;-84
2022/02/24 12:50:39;;;;;;;1.60;1.00;;;13.30;78.90;;;;;;4824073;29;20087;-85
2022/02/24 12:53:07;;;;;;;2.00;1.15;;;13.30;79.00;;;;;;4809229;29;20147;-85
2022/02/24 12:55:34;;;;;;;1.85;1.23;;;13.40;78.90;;;;;;4825086;29;20544;-85